Warning: Javascript must be enabled to use all the features on this page!


Page Loading - Please Wait...

Click to hideNews Bulletins

Streamflow Measurements for the Nation


USGS 02198810 ABERCORN CREEK NEAR SAVANNAH,GA


Effingham County, Georgia
Hydrologic Unit Code 03060109
Latitude  32°15'20", Longitude  81°10'42" NAD27
Gage datum 0.0 feet above NAVD88
Output formats
HTML table with channel data
HTML table without channel data
Tab-separated data with channel data
Tab-separated data without channel data
Graph of data
Reselect output format
Meas.
Number
  Date       Time Time
Datum
Measurement
Used?
  Who Measuring
Agency
Stream
flow
(ft3/s)
Gage
Height
(ft)
GH
Change
(ft)
Meas.
Duration
(hr)
Meas.
Rated
  Control Flow
Adjust.
Code
 
2132021-02-16 09:39:07ESTYesAML/ACCUSGS-16702.07 0.32FairUnspecifedNONE
2122021-02-16 09:21:04ESTYesAML/ACCUSGS-15701.54 0.28FairUnspecifedNONE
2112020-12-14 13:53:11ESTYesACC/MEMUSGS40903.17-0.350.35FairUnspecifedNONE
2102020-12-14 13:33:49ESTYesACC/MEMUSGS39903.51-0.290.28FairUnspecifedNONE
2092020-10-07 11:27:04EDTYesMEM/AWRUSGS-17303.970.180.27GoodUnspecifedNONE
2082020-10-07 11:10:49EDTYesMEM/AWRUSGS-19403.750.250.27GoodUnspecifedNONE
2072020-10-07 10:54:10EDTYesMEM/AWRUSGS-20103.460.340.28GoodUnspecifedNONE
2062020-10-07 10:37:35EDTYesMEM/AWRUSGS-20803.110.350.27GoodUnspecifedNONE
2052020-08-12 09:53:23EDTYesACC/AWRUSGS1080-1.79-0.120.20Poor NONE
2042020-08-12 09:42:18EDTYesACC/AWRUSGS1160-1.65-0.170.20Poor NONE
2032020-08-12 09:29:08EDTYesACC/AWRUSGS1250-1.44-0.230.30Fair NONE
2022020-08-12 09:14:22EDTYesACC/AWRUSGS1370-1.21-0.230.24Fair NONE
2012020-06-03 11:08:10EDTYesACC/MEM/AWRUSGS33403.55-0.190.25FairUnspecifedNONE
2002020-06-03 10:52:58EDTYesACC/MEM/AWRUSGS31603.75-0.220.25FairUnspecifedNONE
1992020-04-01 09:09:49EDTYesACC/SGWUSGS34201.21-0.150.47Fair NONE
1982020-02-20 11:26:07ESTNo
1972019-11-26 13:24:29ESTYesJJM/ACCUSGS35302.45-0.740.49Good NONE
1962019-08-13 11:45:20EDTYesACC/AWR/SGWUSGS25402.26-0.450.33Good NONE
1952019-06-19 09:57:25EDTYesACC/AWRUSGS-22703.200.600.56Good NONE
1942018-11-20 10:48:50ESTYesAWR/MEMUSGS31302.77-0.400.31FairUnspecifedNONE
1932018-07-18 13:21:34EDTYesAWR/JJM/ACCUSGS-26003.170.480.37Good NONE
1922018-03-20 09:58:01EDTYesAWR/ACCUSGS-28502.480.900.50FairUnspecifedNONE
1912017-11-16 12:37:20ESTYesACC/AWRUSGS30601.45 Good NONE
1902017-05-11 12:56:41EDTYesAWR/ACCUSGS22501.90 Good NONE
1892016-12-07 12:36:18ESTYesAWR/ACCUSGS-21802.74 Fair NONE
1882016-08-17 11:42:26EDTYesAWR/ACCUSGS24802.63 Good NONE
1872016-04-05 11:29:06EDTYesAWR/ACCUSGS29202.36 Good NONE
1862015-11-30 13:31:28ESTYesAWR/ACCUSGS-12.74.95 Poor NONE
1852015-07-01 12:21:12EDTYesAWR/ACCUSGS22501.08 Good NONE
1842015-03-04 19:08:45ESTYesAWR/ACCUSGS-20003.17 0.00Good NONE
1832015-03-04 19:06:16ESTYesAWR/ACCUSGS-19303.11 0.00Good NONE
1822015-03-04 19:00:30ESTYesAWR/ACCUSGS-19802.98 0.00Good NONE
1812015-03-04 18:57:40ESTYesAWR/ACCUSGS-20202.91 0.00Good NONE
1802015-03-04 18:50:21ESTYesAWR/ACCUSGS-20902.72 0.10Good NONE
1792015-03-04 18:47:06ESTYesAWR/ACCUSGS-21202.63 0.00Good NONE
1782015-03-04 18:41:32ESTYesAWR/ACCUSGS-22502.48 0.00Good NONE
1772015-03-04 18:38:46ESTYesAWR/ACCUSGS-21502.41 0.00Good NONE
1762015-03-04 18:33:49ESTYesAWR/ACCUSGS-21102.27 0.00Good NONE
1752015-03-04 18:31:04ESTYesAWR/ACCUSGS-21902.19 0.00Good NONE
1742015-03-04 18:25:25ESTYesAWR/ACCUSGS-20002.02 0.00Good NONE
1732015-03-04 18:22:27ESTYesAWR/ACCUSGS-21001.92 0.00Good NONE
1722015-03-04 18:15:42ESTYesAWR/ACCUSGS-20301.71 0.00Good NONE
1712015-03-04 18:12:07ESTYesAWR/ACCUSGS-20901.59 0.00Good NONE
1702015-03-04 18:08:39ESTYesAWR/ACCUSGS-19401.48 0.00Good NONE
1692015-03-04 18:05:25ESTYesAWR/ACCUSGS-20301.37 0.00Good NONE
1682015-03-04 18:01:56ESTYesAWR/ACCUSGS-20001.25 0.00Good NONE
1672015-03-04 17:50:05ESTYesAWR/ACCUSGS-17800.87 0.00Good NONE
1662015-03-04 17:42ESTYesAWR/ACCUSGS-17600.59 0.00Good NONE
1652015-03-04 17:24:48ESTYesAWR/ACCUSGS-1390-0.01 0.00Good NONE
1642015-03-04 17:09:26ESTYesAWR/ACCUSGS-1120-0.47 0.00Good NONE
1632015-03-04 16:38:09ESTYesAWR/ACCUSGS208-1.21 0.00Good NONE
1622015-03-04 15:45:19ESTYesAWR/ACCUSGS1180-1.37 0.00Good NONE
1612015-03-04 15:17:17ESTYesAWR/ACCUSGS1580-1.11 0.00Good NONE
1602015-03-04 14:47:09ESTYesAWR/ACCUSGS1700-0.75 0.00Good NONE
1592015-03-04 14:25:13ESTYesAWR/ACCUSGS2000-0.38 0.00Good NONE
1582015-03-04 14:06:32ESTYesAWR/ACCUSGS2200-0.07 0.00Good NONE
1572015-03-04 13:52:17ESTYesAWR/ACCUSGS22200.20 0.00Good NONE
1562015-03-04 13:33:43ESTYesAWR/ACCUSGS23800.58 0.00Good NONE
1552015-03-04 13:31:17ESTYesAWR/ACCUSGS25700.63 0.00Good NONE
1542015-03-04 13:10:25ESTYesAWR/ACCUSGS27101.07 0.00Good NONE
1532015-03-04 12:59:31ESTYesAWR/ACCUSGS27601.32 0.00Good NONE
1522015-03-04 12:57:10ESTYesAWR/ACCUSGS27901.37 0.00Good NONE
1512015-03-04 12:53:40ESTYesAWR/ACCUSGS28301.44 0.10Good NONE
1502015-03-04 12:50:50ESTYesAWR/ACCUSGS28301.49 0.00Good NONE
1492015-03-04 12:47:53ESTYesAWR/ACCUSGS30401.54 0.00Good NONE
1482015-03-04 12:42:24ESTYesAWR/ACCUSGS30101.67 0.00Good NONE
1472015-03-04 12:39:58ESTYesAWR/ACCUSGS30901.73 0.00Good NONE
1462015-03-04 12:37:42ESTYesAWR/ACCUSGS29401.78 0.00Good NONE
1452015-03-04 12:35:25ESTYesAWR/ACCUSGS30201.83 0.00Good NONE
1442015-03-04 12:28:25ESTYesAWR/ACCUSGS29602.00 0.00Good NONE
1432015-03-04 12:26:06ESTYesAWR/ACCUSGS29602.05 0.00Good NONE
1422015-03-04 12:23:53ESTYesAWR/ACCUSGS31102.10 0.00Good NONE
1412015-03-04 12:21:30ESTYesAWR/ACCUSGS30402.15 0.00Good NONE
1402015-03-04 12:18:55ESTYesAWR/ACCUSGS31202.21 0.00Good NONE
1392015-03-04 12:16:19ESTYesAWR/ACCUSGS30802.27 0.00Good NONE
1382015-03-04 12:13:50ESTYesAWR/ACCUSGS30602.32 0.00Good NONE
1372015-03-04 12:11:18ESTYesAWR/ACCUSGS30202.37 0.00Good NONE
1362015-03-04 12:08:52ESTYesAWR/ACCUSGS31302.42 0.00Good NONE
1352015-03-04 12:06:12ESTYesAWR/ACCUSGS29602.48 0.00Good NONE
1342015-03-04 12:03:31ESTYesAWR/ACCUSGS30202.53 0.00Good NONE
1332015-03-04 12:01:06ESTYesAWR/ACCUSGS29402.58 0.00Good NONE
1322015-03-04 11:58:36ESTYesAWR/ACCUSGS29702.63 0.00Good NONE
1312015-03-04 11:56:01ESTYesAWR/ACCUSGS30102.68 0.00Good NONE
1302015-03-04 11:53:05ESTYesAWR/ACCUSGS30502.75 0.00Good NONE
1292015-03-04 11:50:26ESTYesAWR/ACCUSGS30602.80 0.00Good NONE
1282015-03-04 11:47:51ESTYesAWR/ACCUSGS29802.86 0.00Good NONE
1272015-03-04 11:44:41ESTYesAWR/ACCUSGS29502.93 0.00Good NONE
1262015-03-04 11:33:24ESTYesAWR/ACCUSGS30003.14 0.00Good NONE
1252015-03-04 11:24:54ESTYesAWR/ACCUSGS28503.30 0.00Good NONE
1242015-03-04 11:16:58ESTYesAWR/ACCUSGS27903.44 0.00Good NONE
1232015-03-04 11:11:46ESTYesAWR/ACCUSGS2710 0.00Good NONE
1222015-03-04 11:00:26ESTYesAWR/ACCUSGS27103.74 0.00Good NONE
1212015-03-04 10:44:44ESTYesAWR/ACCUSGS23203.94 0.00Good NONE
1202015-03-04 10:28:42ESTYesAWR/ACCUSGS20604.11 Good NONE
1192015-03-04 10:10:03ESTYesAWR/ACCUSGS15204.28 0.00Good NONE
1182015-03-04 10:00:09ESTYesAWR/ACCUSGS12404.34 0.00Good NONE
1172015-03-04 09:02:57ESTYesAWR/ACCUSGS-3914.50 0.00Good NONE
1162015-03-04 08:33:08ESTYesAWR/ACCUSGS-8144.47 0.00Good NONE
1152015-03-04 08:17:56ESTYesAWR/ACCUSGS-11504.45 0.00Good NONE
1142015-03-04 08:00:37ESTYesAWR/ACCUSGS-13804.39 0.00Good NONE
1132015-03-04 07:57:36ESTYesAWR/ACCUSGS-14504.38 0.10Good NONE
1122015-03-04 07:56:26ESTYesAWR/ACCUSGS-14104.37 0.10Good NONE
1112015-03-04 07:52:08ESTYesAWR/ACCUSGS-14604.35 0.00Good NONE
1102015-03-04 07:49:28ESTYesAWR/ACCUSGS-15604.34 0.00Good NONE
1092015-03-04 07:46:55ESTYesAWR/ACCUSGS-15604.33 0.00Good NONE
1082015-03-04 07:44:12ESTYesAWR/ACCUSGS-16004.31 0.00Good NONE
1072015-03-04 07:41:24ESTYesAWR/ACCUSGS-1650 0.00Good NONE
1062015-03-04 07:38:44ESTYesAWR/ACCUSGS-17304.27 0.00Good NONE
1052015-03-04 07:35:55ESTYesAWR/ACCUSGS-17904.25 0.00Good NONE
1042015-03-04 07:33:20ESTYesAWR/ACCUSGS-17704.23 0.00Good NONE
1032015-03-04 07:30:30ESTYesAWR/ACCUSGS-18904.21 0.10Good NONE
1022015-03-04 07:27:30ESTYesAWR/ACCUSGS-18304.19 0.00Good NONE
1012015-03-04 07:24:58ESTYesAWR/ACCUSGS-20304.16 0.00Good NONE
1002015-02-04 13:42:08ESTYesACC/AWRUSGS22400.79 Good NONE
992014-11-12 10:50:15ESTYesJKP/AWRUSGS-24302.58 Good NONE
982014-08-06 09:16:09EDTYesAWR/JKPUSGS21100.49 0.50Good NONE
972014-03-31 14:42:51EDTYesAWR/JKPUSGS34502.290.550.30Poor NONE
962013-10-30 10:23:30EDTYesMVT/ACCUSGS20300.70-0.370.30PoorClearNONE
952013-06-27 10:46EDTYesMVT/ACCUSGS-23801.120.560.20PoorClearNONE
942013-02-14 09:22ESTYesMVT/ACCUSGS-20300.960.550.30PoorClearNONE
932012-10-25 10:50EDTYesMVT/ACCUSGS22801.09-0.370.30PoorClearNONE
922012-06-18 12:27:30EDTYesMVT/ACCUSGS22402.20-0.400.30GoodClearNONE
912012-02-21 12:15ESTYesMVT/ACCUSGS29703.01-0.090.10GoodClearNONE
902011-09-28 14:34:30EDTYesMVT/ACCUSGS31903.420.000.00GoodClearNONE
892011-09-28 14:29:30EDTYesMVT/ACCUSGS32803.510.000.00GoodClearNONE
882011-09-28 14:24:30EDTYesMVT/ACCUSGS32203.630.000.00GoodClearNONE
872011-09-28 14:19:30EDTYesMVT/ACCUSGS32503.690.000.00GoodClearNONE
862011-09-28 14:14:30EDTYesMVT/ACCUSGS31003.740.000.00GoodClearNONE
852011-09-28 14:09:30EDTYesMVT/ACCUSGS29903.870.000.00GoodClearNONE
842011-09-28 14:04:30EDTYesMVT/ACCUSGS30003.960.000.00GoodClearNONE
832011-09-28 13:59:30EDTYesMVT/ACCUSGS28304.030.000.00GoodClearNONE
822011-09-28 13:29:30EDTYesMVT/ACCUSGS17604.370.000.00GoodClearNONE
812011-09-28 12:59:30EDTYesMVT/ACCUSGS-2064.670.000.00GoodClearNONE
802011-09-28 12:29:30EDTYesMVT/ACCUSGS-15204.830.000.00GoodClearNONE
792011-09-28 11:59:30EDTYesMVT/ACCUSGS-18804.840.000.00GoodClearNONE
782011-09-28 10:59:30EDTYesMVT/ACCUSGS-23204.660.000.00GoodClearNONE
772011-09-28 10:29:30EDTYesMVT/ACCUSGS-23304.500.000.00GoodClearNONE
762011-09-28 09:59:30EDTYesMVT/ACCUSGS-24404.250.000.00GoodClearNONE
752011-09-28 09:44:30EDTYesMVT/ACCUSGS-24704.100.000.00GoodClearNONE
742011-09-28 09:29:30EDTYesMVT/ACCUSGS-27203.880.000.00GoodClearNONE
732011-09-28 09:19:30EDTYesMVT/ACCUSGS-27703.730.000.00GoodClearNONE
722011-09-28 09:09:30EDTYesMVT/ACCUSGS-30703.550.000.00GoodClearNONE
712011-09-28 08:59:30EDTYesMVT/ACCUSGS-30403.320.000.00GoodClearNONE
702011-09-28 08:49:30EDTYesMVT/ACCUSGS-29803.090.000.00GoodClearNONE
692011-09-28 08:39:30EDTYesMVT/ACCUSGS-30802.780.000.00GoodClearNONE
682011-09-28 08:34:30EDTYesMVT/ACCUSGS-30902.610.000.00GoodClearNONE
672011-09-28 08:29:30EDTYesMVT/ACCUSGS-31802.470.000.00GoodClearNONE
662011-09-28 08:24:30EDTYesMVT/ACCUSGS-31202.300.000.00GoodClearNONE
652011-09-28 08:19:30EDTYesMVT/ACCUSGS-30202.100.000.00GoodClearNONE
642011-09-28 08:09:30EDTYesMVT/ACCUSGS-29501.740.000.00GoodClearNONE
632011-09-28 07:54:30EDTYesMVT/ACCUSGS-28201.200.000.00GoodClearNONE
622011-09-28 07:44:30EDTYesMVT/ACCUSGS-27000.830.000.00GoodClearNONE
612011-09-28 07:34:30EDTYesMVT/ACCUSGS-25900.440.000.00GoodClearNONE
602011-09-28 07:24:30EDTYesMVT/ACCUSGS-23900.020.000.00GoodClearNONE
592011-09-28 07:19:30EDTYesMVT/ACCUSGS-2190-0.150.000.00GoodClearNONE
582011-09-28 07:09:30EDTYesMVT/ACCUSGS-2220-0.570.000.00GoodClearNONE
572011-09-28 06:59:30EDTYesMVT/ACCUSGS-1980-0.990.000.00GoodClearNONE
562011-09-28 06:49:30EDTYesMVT/ACCUSGS-1790-1.350.000.00GoodClearNONE
552011-08-24 07:57:30EDTYesMVT/ACCUSGS17802.28-0.100.10GoodClearNONE
542011-03-08 08:22ESTYesMVT/ACCUSGS-23200.700.140.10GoodClearNONE
532011-02-02 13:07:30ESTYesMVT/LJWUSGS20600.10-0.120.10GoodClearNONE
522011-02-02 12:57:30ESTYesMVT/LJWUSGS22100.34-0.110.10GoodClearNONE
502010-02-04 15:20ESTYesJKJ/MVTUSGS39505.05 UnspecifiedUnspecifedNONE
492010-02-04 15:19ESTYesJKJ/MVTUSGS36805.05 FairUnspecifedNONE
482010-02-04 15:05ESTYesJKJ/MVTUSGS36705.05 0.10FairUnspecifedNONE
472010-02-04 14:55ESTYesJKJ/MVTUSGS36505.06 0.10FairUnspecifedNONE
462010-02-04 14:50ESTYesJKJ/MVTUSGS37205.08 0.10FairUnspecifedNONE
452010-02-04 14:40ESTYesJKJ/MVTUSGS36905.10 FairUnspecifedNONE
442010-02-04 14:30:30ESTYesJKJ/MVTUSGS36205.11 0.00FairUnspecifedNONE
432009-07-08 16:22EDTYesTJG/JKJUSGS1160-1.51 Poor NONE
422009-07-08 16:00EDTYesTJG/JKJUSGS1410-1.19 Fair NONE
412009-07-08 14:57EDTYesTJG/JKJUSGS18300.30 Poor NONE
402009-07-08 14:54EDTYesTJG/JKJUSGS17700.41 Unspecified NONE
392009-07-08 14:53EDTYesTJG/JKJUSGS18200.46 Poor NONE
382009-07-08 14:34EDTYesTJG/JKJUSGS20400.72 Good NONE
372009-07-08 13:39EDTYesTJG/JKJUSGS22202.10 Good NONE
362009-07-08 12:45EDTYesTJG/JKJUSGS20303.15 Unspecified NONE
352009-07-08 12:41EDTYesTJG/JKJUSGS19503.21 Unspecified NONE
342009-07-08 12:41EDTYesTJG/JKJUSGS18703.28 Poor NONE
332009-07-08 12:31EDTYesTJG/JKJUSGS17303.39 Poor NONE
322009-07-08 11:46EDTYesTJG/JKJUSGS3653.87 Poor NONE
312009-07-08 11:41EDTYesTJG/JKJUSGS1613.88 Poor NONE
302009-07-08 11:36EDTYesTJG/JKJUSGS-35.63.92 Poor NONE
292009-07-08 11:31EDTYesTJG/JKJUSGS-2383.95 Poor NONE
282009-07-08 10:41EDTYesTJG/JKJUSGS-13903.93 Poor NONE
272009-07-08 10:39EDTYesTJG/JKJUSGS-14403.88 Poor NONE
262009-07-08 10:38EDTYesTJG/JKJUSGS-14603.85 Poor NONE
252009-07-08 10:36EDTYesTJG/JKJUSGS-15803.81 Poor NONE
242009-07-08 10:34EDTYesTJG/JKJUSGS-14803.82 Poor NONE
232009-07-08 10:32EDTYesTJG/JKJUSGS-15103.84 Poor NONE
222009-07-08 10:30EDTYesTJG/JKJUSGS-15403.86 Poor NONE
212009-07-08 10:28EDTYesTJG/JKJUSGS-15903.85 Poor NONE
202009-07-08 10:26EDTYesTJG/JKJUSGS-15403.85 Poor NONE
192009-07-08 10:24EDTYesTJG/JKJUSGS-16603.84 Poor NONE
182009-07-08 10:23EDTYesTJG/JKJUSGS-16603.83 Poor NONE
172009-07-08 10:21EDTYesTJG/JKJUSGS-17503.82 Poor NONE
162009-07-08 10:19EDTYesTJG/JKJUSGS-18503.81 Poor NONE
152009-07-08 10:18EDTYesTJG/JKJUSGS-17303.79 Poor NONE
142009-07-08 10:14EDTYesTJG/JKJUSGS-17803.76 Poor NONE
132009-07-08 10:11EDTYesTJG/JKJUSGS-18503.74 Poor NONE
122009-07-08 10:09EDTYesTJG/JKJUSGS-18803.76 Poor NONE
112009-07-08 10:07EDTYesTJG/JKJUSGS-18203.71 Poor NONE
102009-07-08 10:02EDTYesTJG/JKJUSGS-19503.67 Poor NONE
92009-07-08 10:01EDTYesTJG/JKJUSGS-20003.63 Poor NONE
82009-07-08 09:36EDTYesTJG/JKJUSGS-23003.35 Poor NONE
72009-07-08 09:32EDTYesTJG/JKJUSGS-22303.23 Poor NONE
62009-07-08 09:30EDTYesTJG/JKJUSGS-24203.20 Poor NONE
52009-07-08 09:03EDTYesTJG/JKJUSGS-23902.70 Poor NONE
42009-07-08 09:02EDTYesTJG/JKJUSGS-24602.64 Poor NONE
32009-07-08 09:01EDTYesTJG/JKJUSGS-24902.44 Fair NONE
22009-07-08 08:47EDTYesTJG/JKJUSGS-26502.32 Fair NONE
12009-07-08 08:06EDTYesTJG/JKJUSGS-24401.23 Good NONE